Meteo Giornale » Osservazioni meteo Stati Uniti (USA) » Tekamah
ore: 00:54 - Osservazioni Meteo Tekamah
Lat. 41° 46' N Lon. 96° 10' W Alt. 313 metri s.l.m.
22 °C
Poco Nuvoloso
Temp. 24 Ore
20 °C
31 °C
Nord
0 Km/h
Dew point 22 °C
Umidità 100 %
Visibilità 10 Km
Il sole sorge alle ore 06:50
Il sole tramonta alle ore 19:58
| Data e Ora | Cielo e Fenomeni | T °C | DP °C | Um. % | Pres. hPa | Vis. km | Vento km/h | |
|---|---|---|---|---|---|---|---|---|
| Oggi h: 00:54 | Poco Nuvoloso | 22 | 22 | 100 | 1014 | 10 | N 0 | |
| Ieri h: 23:54 | Molto Nuvoloso | 22 | 21 | 94 | 1014 | 10 | N 5.5 | |
| Ieri h: 23:17 | Foschia | 23 | 22 | 94 | 1014 | 6 | N 0 | |
| Ieri h: 23:13 | Foschia | 23 | 23 | 100 | 1014 | 2 | N 0 | |
| Ieri h: 23:05 | Foschia | 22 | 22 | 100 | 1014 | 2 | N 0 | |
| Ieri h: 22:54 | Foschia | 22 | 22 | 100 | 1014 | 5 | N 0 | |
| Ieri h: 22:49 | Foschia | 22 | 22 | 100 | 1014 | 5 | N 0 | |
| Ieri h: 22:41 | Foschia | 22 | 22 | 100 | 1013 | 2 | N 0 | |
| Ieri h: 21:54 | Sereno | 24 | 23 | 94 | 1013 | 14 | N 0 | |
| Ieri h: 20:54 | Sereno | 25 | 24 | 94 | 1012 | 10 | E 7.4 | |
| Ieri h: 19:54 | Sereno | 28 | 25 | 83 | 1012 | 10 | N 0 | |
| Ieri h: 18:54 | Sereno | 30 | 24 | 70 | 1012 | 10 | N 0 | |
| Ieri h: 17:54 | Sereno | 31 | 24 | 66 | 1012 | 10 | N 5.5 | |
| Ieri h: 16:54 | Sereno | 31 | 24 | 66 | 1013 | 10 | O/NO 7.4 | |
| Ieri h: 15:54 | Sereno | 31 | 23 | 62 | 1013 | 10 | O 7.4 | |
| Ieri h: 14:54 | Sereno | 30 | 23 | 66 | 1013 | 10 | N 0 | |
| Ieri h: 13:54 | Sereno | 29 | 23 | 70 | 1013 | 10 | N 7.4 | |
| Ieri h: 12:54 | Sereno | 28 | 22 | 69 | 1013 | 10 | N 0 | |
| Ieri h: 11:54 | Sereno | 27 | 22 | 74 | 1013 | 10 | N 0 | |
| Ieri h: 10:54 | Sereno | 24 | 21 | 83 | 1012 | 10 | N/NO 9.3 | |
| Ieri h: 09:54 | Nuvoloso | 22 | 20 | 88 | 1012 | 10 | O 14.8 | |
| Ieri h: 08:54 | Nuvoloso | 23 | 21 | 88 | 1013 | 10 | O/SO 13 | |
| Ieri h: 07:54 | Foschia | 22 | 21 | 94 | 1012 | 10 | N 0 | |
| Ieri h: 06:54 | Foschia | 20 | 19 | 93 | 1011 | 10 | N 0 | |
| Ieri h: 05:54 | Sereno | 20 | 19 | 93 | 1010 | 11 | N 5.5 | |
| Ieri h: 04:54 | Foschia | 21 | 20 | 94 | 1009 | 10 | N 5.5 | |
| Ieri h: 03:54 | Sereno | 20 | 19 | 93 | 1009 | 14 | S/SE 9.3 | |
| Ieri h: 02:54 | Sereno | 21 | 20 | 94 | 1008 | 10 | N 5.5 | |
| Ieri h: 01:54 | Sereno | 21 | 21 | 100 | 1009 | 10 | N 0 | |



